Time;durP1;ratioP1;P1;durP2;ratioP2;P2;SDS_P1;SDS_P2;PMS_P1;PMS_P2;Temp;Humidity;BMP_temperature;BMP_pressure;BME280_temperature;BME280_humidity;BME280_pressure;Samples;Min_cycle;Max_cycle;Signal;HPM_P1;HPM_P2
2021/09/19 00:01:35;;;;;;;;;;;11.10;99.90;;;;;;5114408;27;19978;-74
2021/09/19 00:04:07;;;;;;;;;;;11.10;99.90;;;;;;5132481;27;19924;-74
2021/09/19 00:06:39;;;;;;;;;;;11.10;99.90;;;;;;5115417;27;19930;-74
2021/09/19 00:09:06;;;;;;;;;;;11.00;99.90;;;;;;5114263;27;19966;-73
2021/09/19 00:11:37;;;;;;;;;;;11.00;99.90;;;;;;5132444;27;20012;-73
2021/09/19 00:14:09;;;;;;;;;;;10.90;99.90;;;;;;5132130;27;19923;-74
2021/09/19 00:16:42;;;;;;;;;;;10.80;99.90;;;;;;5098059;27;19924;-74
2021/09/19 00:19:09;;;;;;;;;;;10.80;99.90;;;;;;5132788;27;20026;-74
2021/09/19 00:21:41;;;;;;;;;;;10.80;99.90;;;;;;5115381;27;19930;-72
2021/09/19 00:24:08;;;;;;;;;;;10.80;99.90;;;;;;5113869;27;20062;-74
2021/09/19 00:26:34;;;;;;;;;;;10.80;99.90;;;;;;5132338;27;20035;-74
2021/09/19 00:29:06;;;;;;;;;;;10.80;99.90;;;;;;5098711;27;19954;-74
2021/09/19 00:31:33;;;;;;;;;;;10.80;99.90;;;;;;5114495;27;19966;-73
2021/09/19 00:34:04;;;;;;;;;;;10.80;99.90;;;;;;5114132;27;19927;-74
2021/09/19 00:36:31;;;;;;;;;;;10.80;99.90;;;;;;5114089;27;19966;-73
2021/09/19 00:38:58;;;;;;;;;;;10.80;99.90;;;;;;5132233;27;19961;-73
2021/09/19 00:41:24;;;;;;;;;;;10.80;99.90;;;;;;5114024;27;20014;-73
2021/09/19 00:43:51;;;;;;;;;;;10.70;99.90;;;;;;5113833;27;20026;-73
2021/09/19 00:46:23;;;;;;;;;;;10.70;99.90;;;;;;5132008;27;19969;-74
2021/09/19 00:48:49;;;;;;;;;;;10.70;99.90;;;;;;5096887;27;20384;-73
2021/09/19 00:51:16;;;;;;;;;;;10.60;99.90;;;;;;5113883;27;19972;-73
2021/09/19 00:53:50;;;;;;;;;;;10.60;99.90;;;;;;5113687;27;19930;-73
2021/09/19 00:56:23;;;;;;;;;;;10.50;99.90;;;;;;5113661;27;20401;-73
2021/09/19 00:58:51;;;;;;;;;;;10.50;99.90;;;;;;5113839;27;20022;-72
2021/09/19 01:01:23;;;;;;;;;;;10.50;99.90;;;;;;5114650;28;19924;-74
2021/09/19 01:03:55;;;;;;;;;;;10.50;99.90;;;;;;5097509;27;20389;-73
2021/09/19 01:06:27;;;;;;;;;;;10.50;99.90;;;;;;5097207;28;20449;-73
2021/09/19 01:08:59;;;;;;;;;;;10.50;99.90;;;;;;5097624;28;20010;-73
2021/09/19 01:11:31;;;;;;;;;;;10.50;99.90;;;;;;5113564;28;20018;-73
2021/09/19 01:14:04;;;;;;;;;;;10.50;99.90;;;;;;5114464;28;19930;-73
2021/09/19 01:16:36;;;;;;;;;;;10.40;99.90;;;;;;5113630;28;19923;-73
2021/09/19 01:19:03;;;;;;;;;;;10.40;99.90;;;;;;5113526;28;19955;-72
2021/09/19 01:21:30;;;;;;;;;;;10.40;99.90;;;;;;5132001;28;19969;-73
2021/09/19 01:24:03;;;;;;;;;;;10.40;99.90;;;;;;5113208;28;19934;-73
2021/09/19 01:26:35;;;;;;;;;;;10.30;99.90;;;;;;5131949;28;19934;-73
2021/09/19 01:29:07;;;;;;;;;;;10.30;99.90;;;;;;5113305;28;19923;-73
2021/09/19 01:31:39;;;;;;;;;;;10.20;99.90;;;;;;5114848;28;19923;-74
2021/09/19 01:34:05;;;;;;;;;;;10.20;99.90;;;;;;5114012;28;19949;-73
2021/09/19 01:36:34;;;;;;;;;;;10.20;99.90;;;;;;5113998;28;20338;-73
2021/09/19 01:39:06;;;;;;;;;;;10.20;99.90;;;;;;5097631;28;19962;-73
2021/09/19 01:41:38;;;;;;;;;;;10.20;99.90;;;;;;5132321;27;19924;-73
2021/09/19 01:44:10;;;;;;;;;;;10.20;99.90;;;;;;5117920;27;19927;-72
2021/09/19 01:46:42;;;;;;;;;;;10.20;99.90;;;;;;5119092;27;19929;-73
2021/09/19 01:49:13;;;;;;;;;;;10.20;99.90;;;;;;5101762;27;19923;-72
2021/09/19 01:51:45;;;;;;;;;;;10.20;99.90;;;;;;5135776;27;19927;-74
2021/09/19 01:54:17;;;;;;;;;;;10.10;99.90;;;;;;5135794;27;19923;-72
2021/09/19 01:56:48;;;;;;;;;;;10.10;99.90;;;;;;5117807;27;19923;-72
2021/09/19 01:59:15;;;;;;;;;;;10.10;99.90;;;;;;5100844;27;20021;-72
2021/09/19 02:01:42;;;;;;;;;;;10.10;99.90;;;;;;5117939;27;19930;-72
2021/09/19 02:04:14;;;;;;;;;;;10.00;99.90;;;;;;5135515;27;20382;-72
2021/09/19 02:06:40;;;;;;;;;;;10.00;99.90;;;;;;5118107;27;19924;-72
2021/09/19 02:09:07;;;;;;;;;;;10.00;99.90;;;;;;5117721;27;20018;-73
2021/09/19 02:11:38;;;;;;;;;;;10.00;99.90;;;;;;5118390;27;19930;-73
2021/09/19 02:14:10;;;;;;;;;;;10.00;99.90;;;;;;5135472;27;20354;-73
2021/09/19 02:16:42;;;;;;;;;;;9.90;99.90;;;;;;5135902;27;19971;-72
2021/09/19 02:19:08;;;;;;;;;;;9.90;99.90;;;;;;5117481;27;20378;-73
2021/09/19 02:21:40;;;;;;;;;;;9.90;99.90;;;;;;5117504;27;19930;-73
2021/09/19 02:24:07;;;;;;;;;;;9.80;99.90;;;;;;5135011;27;19951;-73
2021/09/19 02:26:33;;;;;;;;;;;9.80;99.90;;;;;;5117444;27;20063;-74
2021/09/19 02:29:05;;;;;;;;;;;9.80;99.90;;;;;;5135749;27;20026;-72
2021/09/19 02:31:37;;;;;;;;;;;9.80;99.90;;;;;;5135379;27;19945;-73
2021/09/19 02:34:08;;;;;;;;;;;9.80;99.90;;;;;;5116666;27;19924;-73
2021/09/19 02:36:40;;;;;;;;;;;9.80;99.90;;;;;;5117295;27;19923;-73
2021/09/19 02:39:12;;;;;;;;;;;9.80;99.90;;;;;;5100732;27;19928;-73
2021/09/19 02:41:39;;;;;;;;;;;9.70;99.90;;;;;;5117120;27;20312;-73
2021/09/19 02:44:10;;;;;;;;;;;9.70;99.90;;;;;;5100123;27;20333;-74
2021/09/19 02:46:42;;;;;;;;;;;9.70;99.90;;;;;;5117847;27;19923;-73
2021/09/19 02:49:13;;;;;;;;;;;9.70;99.90;;;;;;5116779;27;20396;-73
2021/09/19 02:51:40;;;;;;;;;;;9.60;99.90;;;;;;5099822;27;19967;-73
2021/09/19 02:54:12;;;;;;;;;;;9.60;99.90;;;;;;5116099;27;19924;-73
2021/09/19 02:56:38;;;;;;;;;;;9.60;99.90;;;;;;5135263;27;19923;-73
2021/09/19 02:59:10;;;;;;;;;;;9.60;99.90;;;;;;5134974;27;19927;-74
2021/09/19 03:01:37;;;;;;;;;;;9.60;99.90;;;;;;5135062;27;19923;-73
2021/09/19 03:04:03;;;;;;;;;;;9.60;99.90;;;;;;5116486;27;20616;-73
2021/09/19 03:06:35;;;;;;;;;;;9.60;99.90;;;;;;5116503;27;20374;-73
2021/09/19 03:09:07;;;;;;;;;;;9.50;99.90;;;;;;5134808;27;19923;-72
2021/09/19 03:11:33;;;;;;;;;;;9.40;99.90;;;;;;5116493;27;20084;-72
2021/09/19 03:14:05;;;;;;;;;;;9.40;99.90;;;;;;5117010;27;19923;-73
2021/09/19 03:16:37;;;;;;;;;;;9.30;99.90;;;;;;5117264;27;20385;-73
2021/09/19 03:19:08;;;;;;;;;;;9.20;99.90;;;;;;5117571;27;20297;-73
2021/09/19 03:21:35;;;;;;;;;;;9.20;99.90;;;;;;5116141;27;19930;-74
2021/09/19 03:24:02;;;;;;;;;;;9.20;99.90;;;;;;5115849;27;19930;-73
2021/09/19 03:26:33;;;;;;;;;;;9.20;99.90;;;;;;5100325;27;20297;-73
2021/09/19 03:29:00;;;;;;;;;;;9.20;99.90;;;;;;5116100;27;20013;-73
2021/09/19 03:31:26;;;;;;;;;;;9.20;99.90;;;;;;5115183;27;19978;-73
2021/09/19 03:33:58;;;;;;;;;;;9.20;99.90;;;;;;5134320;27;19927;-73
2021/09/19 03:36:30;;;;;;;;;;;9.20;99.90;;;;;;5134393;27;20014;-73
2021/09/19 03:39:01;;;;;;;;;;;9.20;99.90;;;;;;5099769;27;19923;-72
2021/09/19 03:41:33;;;;;;;;;;;9.10;99.90;;;;;;5099680;27;19923;-73
2021/09/19 03:44:00;;;;;;;;;;;9.10;99.90;;;;;;5098487;27;20014;-72
2021/09/19 03:46:31;;;;;;;;;;;9.10;99.90;;;;;;5099504;27;19973;-72
2021/09/19 03:49:03;;;;;;;;;;;9.10;99.90;;;;;;5116724;27;19930;-72
2021/09/19 03:51:30;;;;;;;;;;;9.10;99.90;;;;;;5115509;27;20356;-72
2021/09/19 03:54:02;;;;;;;;;;;9.10;99.90;;;;;;5115301;27;19923;-72
2021/09/19 03:56:29;;;;;;;;;;;9.10;99.90;;;;;;5115519;27;19972;-73
2021/09/19 03:59:00;;;;;;;;;;;9.00;99.90;;;;;;5133549;27;19923;-72
2021/09/19 04:01:32;;;;;;;;;;;9.00;99.90;;;;;;5115247;27;19931;-72
2021/09/19 04:04:00;;;;;;;;;;;9.00;99.90;;;;;;5098540;27;20018;-72
2021/09/19 04:06:26;;;;;;;;;;;9.00;99.90;;;;;;5114302;27;19923;-72
2021/09/19 04:08:58;;;;;;;;;;;9.00;99.90;;;;;;5115381;27;19924;-73
2021/09/19 04:11:30;;;;;;;;;;;9.00;99.90;;;;;;5133658;27;19924;-72
2021/09/19 04:14:01;;;;;;;;;;;8.90;99.90;;;;;;5114975;27;20038;-72
2021/09/19 04:16:33;;;;;;;;;;;8.90;99.90;;;;;;5115268;27;19976;-73
2021/09/19 04:19:01;;;;;;;;;;;8.90;99.90;;;;;;5115450;27;19924;-72
2021/09/19 04:21:30;;;;;;;;;;;8.80;99.90;;;;;;5114801;27;20356;-73
2021/09/19 04:24:02;;;;;;;;;;;8.80;99.90;;;;;;5133271;27;20019;-73
2021/09/19 04:26:34;;;;;;;;;;;8.80;99.90;;;;;;5133434;27;20034;-72
2021/09/19 04:29:05;;;;;;;;;;;8.80;99.90;;;;;;5114918;27;20010;-73
2021/09/19 04:31:37;;;;;;;;;;;8.80;99.90;;;;;;5133080;27;19923;-74
2021/09/19 04:34:09;;;;;;;;;;;8.80;99.90;;;;;;5132753;27;20017;-73
2021/09/19 04:36:40;;;;;;;;;;;8.80;99.90;;;;;;5114723;27;20030;-72
2021/09/19 04:39:07;;;;;;;;;;;8.80;99.90;;;;;;5114892;27;20018;-73
2021/09/19 04:41:39;;;;;;;;;;;8.80;99.90;;;;;;5115889;27;19982;-72
2021/09/19 04:44:10;;;;;;;;;;;8.70;99.90;;;;;;5114076;27;19930;-73
2021/09/19 04:46:42;;;;;;;;;;;8.70;99.90;;;;;;5115675;27;19923;-74
2021/09/19 04:49:09;;;;;;;;;;;8.70;99.90;;;;;;5132867;27;20361;-73
2021/09/19 04:51:40;;;;;;;;;;;8.70;99.90;;;;;;5115262;27;20401;-73
2021/09/19 04:54:07;;;;;;;;;;;8.70;99.90;;;;;;5114344;27;20029;-72
2021/09/19 04:56:39;;;;;;;;;;;8.70;99.90;;;;;;5098271;27;20014;-72
2021/09/19 04:59:05;;;;;;;;;;;8.60;99.90;;;;;;5114724;28;20002;-72
2021/09/19 05:01:37;;;;;;;;;;;8.60;99.90;;;;;;5098134;28;19923;-72
2021/09/19 05:04:09;;;;;;;;;;;8.50;99.90;;;;;;5114624;28;20018;-72
2021/09/19 05:06:41;;;;;;;;;;;8.50;99.90;;;;;;5098119;28;19954;-72
2021/09/19 05:09:12;;;;;;;;;;;8.50;99.90;;;;;;5132837;27;19969;-73
2021/09/19 05:11:44;;;;;;;;;;;8.50;99.90;;;;;;5098061;28;20429;-73
2021/09/19 05:14:10;;;;;;;;;;;8.50;99.90;;;;;;5097141;28;20028;-72
2021/09/19 05:16:42;;;;;;;;;;;8.60;99.90;;;;;;5084535;28;19931;-72
2021/09/19 05:19:09;;;;;;;;;;;8.60;99.90;;;;;;5076728;28;19924;-72
2021/09/19 05:21:40;;;;;;;;;;;8.60;99.90;;;;;;5095578;28;19924;-72
2021/09/19 05:24:07;;;;;;;;;;;8.60;99.90;;;;;;5094879;28;20011;-72
2021/09/19 05:26:39;;;;;;;;;;;8.50;99.90;;;;;;5077419;28;19924;-72
2021/09/19 05:29:06;;;;;;;;;;;8.60;99.90;;;;;;5076779;28;20030;-72
2021/09/19 05:31:37;;;;;;;;;;;8.60;99.90;;;;;;5060878;28;19924;-72
2021/09/19 05:34:09;;;;;;;;;;;8.60;99.90;;;;;;5094958;28;20404;-72
2021/09/19 05:36:40;;;;;;;;;;;8.60;99.90;;;;;;5061274;28;20457;-72
2021/09/19 05:39:12;;;;;;;;;;;8.70;99.90;;;;;;5095073;28;20031;-72
2021/09/19 05:41:39;;;;;;;;;;;8.70;99.90;;;;;;5076727;28;20401;-72
2021/09/19 05:44:10;;;;;;;;;;;8.70;99.90;;;;;;5076426;28;20297;-72
2021/09/19 05:46:42;;;;;;;;;;;8.70;99.90;;;;;;5076747;28;19975;-72
2021/09/19 05:49:14;;;;;;;;;;;8.70;99.90;;;;;;5078037;28;19961;-72
2021/09/19 05:51:45;;;;;;;;;;;8.70;99.90;;;;;;5076864;28;20356;-72
2021/09/19 05:54:17;;;;;;;;;;;8.70;99.90;;;;;;5094330;28;19924;-72
2021/09/19 05:56:49;;;;;;;;;;;8.60;99.90;;;;;;5061029;28;19930;-72
2021/09/19 05:59:21;;;;;;;;;;;8.60;99.90;;;;;;5076685;28;20029;-72
2021/09/19 06:01:53;;;;;;;;;;;8.60;99.90;;;;;;5076578;28;20558;-72
2021/09/19 06:04:20;;;;;;;;;;;8.70;99.90;;;;;;5076416;28;19931;-72
2021/09/19 06:06:47;;;;;;;;;;;8.70;99.90;;;;;;5076788;28;19924;-72
2021/09/19 06:09:13;;;;;;;;;;;8.70;99.90;;;;;;5060254;28;20385;-72
2021/09/19 06:11:41;;;;;;;;;;;8.70;99.90;;;;;;5077101;28;19924;-72
2021/09/19 06:14:08;;;;;;;;;;;8.70;99.90;;;;;;5075944;28;19928;-72
2021/09/19 06:16:40;;;;;;;;;;;8.80;99.90;;;;;;5077028;28;20283;-72
2021/09/19 06:19:12;;;;;;;;;;;8.90;99.90;;;;;;5077867;28;19963;-72
2021/09/19 06:21:38;;;;;;;;;;;8.90;99.90;;;;;;5077013;28;20401;-72
2021/09/19 06:24:05;;;;;;;;;;;9.00;99.90;;;;;;5076001;28;20010;-72
2021/09/19 06:26:32;;;;;;;;;;;9.00;99.90;;;;;;5096021;28;20187;-72
2021/09/19 06:29:03;;;;;;;;;;;9.00;99.90;;;;;;5079864;28;20014;-72
2021/09/19 06:31:35;;;;;;;;;;;9.10;99.90;;;;;;5134911;27;19924;-72
2021/09/19 06:34:02;;;;;;;;;;;9.10;99.90;;;;;;5116672;27;20038;-72
2021/09/19 06:36:34;;;;;;;;;;;9.20;99.90;;;;;;5100743;27;19923;-73
2021/09/19 06:39:06;;;;;;;;;;;9.20;99.90;;;;;;5125364;27;20034;-72
2021/09/19 06:41:38;;;;;;;;;;;9.30;99.90;;;;;;5108726;28;20382;-72
2021/09/19 06:44:04;;;;;;;;;;;9.30;99.90;;;;;;5113483;28;19975;-72
2021/09/19 06:46:36;;;;;;;;;;;9.40;99.90;;;;;;5093397;28;19974;-73
2021/09/19 06:49:03;;;;;;;;;;;9.50;99.90;;;;;;5084693;28;19969;-72
2021/09/19 06:51:30;;;;;;;;;;;9.50;99.90;;;;;;5112848;28;19924;-73
2021/09/19 06:53:57;;;;;;;;;;;9.60;99.90;;;;;;5095246;28;19924;-72
2021/09/19 06:56:28;;;;;;;;;;;9.70;99.90;;;;;;5112430;28;20027;-73
2021/09/19 06:59:00;;;;;;;;;;;9.70;99.90;;;;;;5112718;28;19971;-72
2021/09/19 07:01:32;;;;;;;;;;;9.70;99.90;;;;;;5091381;28;19971;-72
2021/09/19 07:03:58;;;;;;;;;;;9.80;99.90;;;;;;5094233;28;19923;-72
2021/09/19 07:06:25;;;;;;;;;;;9.90;99.90;;;;;;5094639;28;19923;-72
2021/09/19 07:08:57;;;;;;;;;;;10.00;99.90;;;;;;5096464;28;19927;-73
2021/09/19 07:11:28;;;;;;;;;;;9.90;99.90;;;;;;5112966;28;19939;-72
2021/09/19 07:14:00;;;;;;;;;;;10.00;99.90;;;;;;5078052;28;19924;-72
2021/09/19 07:16:32;;;;;;;;;;;10.10;99.90;;;;;;5112710;28;20390;-73
2021/09/19 07:18:58;;;;;;;;;;;10.20;99.90;;;;;;5094338;28;20011;-73
2021/09/19 07:21:25;;;;;;;;;;;10.20;99.90;;;;;;5094680;28;20022;-73
2021/09/19 07:23:52;;;;;;;;;;;10.30;99.90;;;;;;5112137;28;20376;-73
2021/09/19 07:26:23;;;;;;;;;;;10.30;99.90;;;;;;5094376;28;19923;-73
2021/09/19 07:28:55;;;;;;;;;;;10.40;99.90;;;;;;5095416;28;19930;-73
2021/09/19 07:31:22;;;;;;;;;;;10.50;99.90;;;;;;5077351;28;20261;-73
2021/09/19 07:33:54;;;;;;;;;;;10.60;99.90;;;;;;5078056;28;19928;-73
2021/09/19 07:36:27;;;;;;;;;;;10.80;99.90;;;;;;5094770;28;19934;-73
2021/09/19 07:39:02;;;;;;;;;;;10.90;99.90;;;;;;5094103;28;19969;-72
2021/09/19 07:41:33;;;;;;;;;;;10.90;99.90;;;;;;5077161;28;19930;-73
2021/09/19 07:44:05;;;;;;;;;;;11.10;99.90;;;;;;5112260;28;19968;-72
2021/09/19 07:46:37;;;;;;;;;;;11.20;99.90;;;;;;5112288;28;19970;-72
2021/09/19 07:49:09;;;;;;;;;;;11.30;99.90;;;;;;5113362;28;20341;-73
2021/09/19 07:51:41;;;;;;;;;;;11.40;99.90;;;;;;5078255;28;20502;-73
2021/09/19 07:54:07;;;;;;;;;;;11.50;99.90;;;;;;5077364;28;20043;-73
2021/09/19 07:56:39;;;;;;;;;;;11.60;99.90;;;;;;5094916;28;20022;-72
2021/09/19 07:59:11;;;;;;;;;;;11.70;99.90;;;;;;5095246;28;20386;-73
2021/09/19 08:01:38;;;;;;;;;;;11.80;99.90;;;;;;5112570;28;20020;-72
2021/09/19 08:04:04;;;;;;;;;;;11.90;99.90;;;;;;5112517;28;19977;-73
2021/09/19 08:06:36;;;;;;;;;;;12.00;99.90;;;;;;5095976;28;19934;-72
2021/09/19 08:09:02;;;;;;;;;;;12.20;99.90;;;;;;5094675;28;20022;-72
2021/09/19 08:11:29;;;;;;;;;;;12.30;99.90;;;;;;5113116;28;20430;-72
2021/09/19 08:14:07;;;;;;;;;;;12.40;99.90;;;;;;5094071;28;19930;-72
2021/09/19 08:16:39;;;;;;;;;;;12.50;99.90;;;;;;5078714;28;19923;-73
2021/09/19 08:19:11;;;;;;;;;;;12.60;99.90;;;;;;5094489;28;19924;-73
2021/09/19 08:21:43;;;;;;;;;;;12.70;99.90;;;;;;5113029;28;19924;-72
2021/09/19 08:24:11;;;;;;;;;;;12.90;99.90;;;;;;5094017;28;20333;-73
2021/09/19 08:26:42;;;;;;;;;;;12.90;99.90;;;;;;5095642;28;19963;-73
2021/09/19 08:29:12;;;;;;;;;;;13.00;99.90;;;;;;5093890;28;20397;-73
2021/09/19 08:31:43;;;;;;;;;;;13.20;99.90;;;;;;5078325;28;20425;-73
2021/09/19 08:34:10;;;;;;;;;;;13.30;99.90;;;;;;5097031;28;19999;-72
2021/09/19 08:36:42;;;;;;;;;;;13.50;99.90;;;;;;5094356;28;19934;-73
2021/09/19 08:39:14;;;;;;;;;;;13.60;99.90;;;;;;5094578;28;19927;-73
2021/09/19 08:41:49;;;;;;;;;;;13.70;99.90;;;;;;5077438;28;19950;-72
2021/09/19 08:44:17;;;;;;;;;;;13.90;99.90;;;;;;5092871;28;20010;-73
2021/09/19 08:46:49;;;;;;;;;;;14.00;99.90;;;;;;5094363;28;19930;-73
2021/09/19 08:49:21;;;;;;;;;;;14.10;99.90;;;;;;5111500;28;19924;-73
2021/09/19 08:51:47;;;;;;;;;;;14.20;99.90;;;;;;5092795;28;20018;-73
2021/09/19 08:54:19;;;;;;;;;;;14.40;99.90;;;;;;5110777;28;20022;-73
2021/09/19 08:56:50;;;;;;;;;;;14.50;99.90;;;;;;5094098;28;19924;-73
2021/09/19 08:59:17;;;;;;;;;;;14.60;99.90;;;;;;5111355;28;20700;-73
2021/09/19 09:01:58;;;;;;;;;;;14.80;99.90;;;;;;5076149;28;20018;-73
2021/09/19 09:04:30;;;;;;;;;;;14.90;99.90;;;;;;5092784;28;19924;-73
2021/09/19 09:07:02;;;;;;;;;;;15.00;99.90;;;;;;5093753;28;19923;-73
2021/09/19 09:09:34;;;;;;;;;;;15.10;99.90;;;;;;5093244;28;19930;-73
2021/09/19 09:12:12;;;;;;;;;;;15.20;99.90;;;;;;5076463;28;19934;-73
2021/09/19 09:14:40;;;;;;;;;;;15.30;99.90;;;;;;5109721;28;19943;-73
2021/09/19 09:17:16;;;;;;;;;;;15.40;99.90;;;;;;5077051;28;19924;-72
2021/09/19 09:19:52;;;;;;;;;;;15.50;99.90;;;;;;5093568;28;19981;-74
2021/09/19 09:22:27;;;;;;;;;;;15.70;99.90;;;;;;5094229;28;19930;-73
2021/09/19 09:25:08;;;;;;;;;;;15.80;99.90;;;;;;5085001;28;19975;-73
2021/09/19 09:27:40;;;;;;;;;;;15.90;99.90;;;;;;5090996;28;20408;-73
2021/09/19 09:30:12;;;;;;;;;;;16.00;99.90;;;;;;5076375;28;19930;-73
2021/09/19 09:33:10;;;;;;;;;;;16.10;99.90;;;;;;5077786;28;19930;-73
2021/09/19 09:35:40;;;;;;;;;;;16.30;99.90;;;;;;5086964;28;20086;-73
2021/09/19 09:38:17;;;;;;;;;;;16.40;99.90;;;;;;5090796;28;19930;-73
2021/09/19 09:40:50;;;;;;;;;;;16.50;99.90;;;;;;5110886;28;19924;-73
2021/09/19 09:43:22;;;;;;;;;;;16.60;99.90;;;;;;5092687;28;19924;-73
2021/09/19 09:45:50;;;;;;;;;;;16.70;99.90;;;;;;5091191;28;19980;-73
2021/09/19 09:48:23;;;;;;;;;;;16.80;99.90;;;;;;5093749;28;19930;-73
2021/09/19 09:50:54;;;;;;;;;;;16.80;99.90;;;;;;5092042;28;20030;-73
2021/09/19 09:53:22;;;;;;;;;;;16.90;99.90;;;;;;5072136;28;19960;-73
2021/09/19 09:55:53;;;;;;;;;;;17.00;99.90;;;;;;5090913;28;19924;-73
2021/09/19 09:58:25;;;;;;;;;;;17.00;99.90;;;;;;5077050;28;19930;-73
2021/09/19 10:00:57;;;;;;;;;;;17.10;99.90;;;;;;5094326;28;20431;-73
2021/09/19 10:03:29;;;;;;;;;;;17.00;99.90;;;;;;5093299;28;19930;-73
2021/09/19 10:05:56;;;;;;;;;;;17.10;99.90;;;;;;5114546;28;20354;-73
2021/09/19 10:08:28;;;;;;;;;;;17.00;99.90;;;;;;5116299;27;20014;-73
2021/09/19 10:10:59;;;;;;;;;;;17.00;99.90;;;;;;5095663;28;19930;-73
2021/09/19 10:13:31;;;;;;;;;;;16.90;99.90;;;;;;5080862;28;19934;-73
2021/09/19 10:15:58;;;;;;;;;;;17.00;99.90;;;;;;5080092;28;20030;-73
2021/09/19 10:18:30;;;;;;;;;;;17.10;99.90;;;;;;5115452;28;20014;-73
2021/09/19 10:21:02;;;;;;;;;;;17.30;99.90;;;;;;5095496;28;19927;-73
2021/09/19 10:23:34;;;;;;;;;;;17.50;99.90;;;;;;5097389;28;20401;-73
2021/09/19 10:26:08;;;;;;;;;;;17.70;99.90;;;;;;5096036;28;19923;-73
2021/09/19 10:28:41;;;;;;;;;;;17.80;99.90;;;;;;5097915;28;20398;-73
2021/09/19 10:31:07;;;;;;;;;;;17.90;99.90;;;;;;5114784;28;19930;-73
2021/09/19 10:33:38;;;;;;;;;;;18.00;99.90;;;;;;5097136;28;20023;-73
2021/09/19 10:36:11;;;;;;;;;;;18.20;99.90;;;;;;5080202;28;19970;-74
2021/09/19 10:38:39;;;;;;;;;;;18.30;99.90;;;;;;5097051;28;20366;-73
2021/09/19 10:41:16;;;;;;;;;;;18.40;99.90;;;;;;5080646;28;19930;-73
2021/09/19 10:43:48;;;;;;;;;;;18.20;99.90;;;;;;5080497;28;20039;-73
2021/09/19 10:46:33;;;;;;;;;;;18.30;99.90;;;;;;5096194;28;19924;-73
2021/09/19 10:49:11;;;;;;;;;;;18.40;99.90;;;;;;5097671;28;20002;-73
2021/09/19 10:51:56;;;;;;;;;;;18.30;99.90;;;;;;5114890;28;20014;-73
2021/09/19 10:54:50;;;;;;;;;;;18.30;99.90;;;;;;5079836;28;20019;-73
2021/09/19 10:57:27;;;;;;;;;;;18.40;99.90;;;;;;5114308;28;20402;-73
2021/09/19 11:00:08;;;;;;;;;;;18.60;99.90;;;;;;5080654;28;20601;-73
2021/09/19 11:02:42;;;;;;;;;;;18.70;99.90;;;;;;5080311;28;19978;-73
2021/09/19 11:05:25;;;;;;;;;;;18.70;99.90;;;;;;5080077;28;19955;-73
2021/09/19 11:08:06;;;;;;;;;;;18.50;99.90;;;;;;5080256;28;19993;-73
2021/09/19 11:10:55;;;;;;;;;;;18.50;99.90;;;;;;5096448;28;20449;-73
2021/09/19 11:13:28;;;;;;;;;;;18.50;99.90;;;;;;5113981;28;20021;-73
2021/09/19 11:16:03;;;;;;;;;;;18.60;99.90;;;;;;5095409;28;20027;-73
2021/09/19 11:18:34;;;;;;;;;;;18.80;99.90;;;;;;5096202;28;19981;-73
2021/09/19 11:21:14;;;;;;;;;;;19.00;99.90;;;;;;5095623;28;19976;-73
2021/09/19 11:23:47;;;;;;;;;;;19.20;99.90;;;;;;5079681;28;20014;-73
2021/09/19 11:26:18;;;;;;;;;;;19.30;99.90;;;;;;5078362;28;20014;-73
2021/09/19 11:28:49;;;;;;;;;;;19.40;99.90;;;;;;5095818;28;20448;-73
2021/09/19 11:31:21;;;;;;;;;;;19.50;99.90;;;;;;5095727;28;19924;-73
2021/09/19 11:33:48;;;;;;;;;;;19.50;99.90;;;;;;5095696;28;20061;-73
2021/09/19 11:36:20;;;;;;;;;;;19.60;99.90;;;;;;5078955;28;19924;-73
2021/09/19 11:38:52;;;;;;;;;;;19.70;99.90;;;;;;5079418;28;20014;-73
2021/09/19 11:41:25;;;;;;;;;;;19.80;99.90;;;;;;5095326;28;19924;-73
2021/09/19 11:43:53;;;;;;;;;;;19.90;99.90;;;;;;5094034;28;20010;-72
2021/09/19 11:46:25;;;;;;;;;;;19.90;99.90;;;;;;5094992;28;19923;-72
2021/09/19 11:48:57;;;;;;;;;;;19.90;99.90;;;;;;5112893;28;20416;-72
2021/09/19 11:51:24;;;;;;;;;;;19.80;99.90;;;;;;5095250;28;19977;-73
2021/09/19 11:53:53;;;;;;;;;;;19.80;99.90;;;;;;5078056;28;19935;-74
2021/09/19 11:56:20;;;;;;;;;;;19.70;99.90;;;;;;5094951;28;19924;-73
2021/09/19 11:58:48;;;;;;;;;;;19.60;99.90;;;;;;5078342;28;20022;-73
2021/09/19 12:01:27;;;;;;;;;;;19.50;99.90;;;;;;5095596;28;20374;-73
2021/09/19 12:04:03;;;;;;;;;;;19.40;99.90;;;;;;5096413;28;19924;-73
2021/09/19 12:06:36;;;;;;;;;;;19.30;99.90;;;;;;5079249;28;20026;-73
2021/09/19 12:09:07;;;;;;;;;;;19.30;99.90;;;;;;5113553;28;19930;-73
2021/09/19 12:11:38;;;;;;;;;;;19.40;99.90;;;;;;5094714;28;19923;-73
2021/09/19 12:14:14;;;;;;;;;;;19.40;99.90;;;;;;5113477;28;20022;-73
2021/09/19 12:16:56;;;;;;;;;;;19.50;99.90;;;;;;5079450;28;19924;-73
2021/09/19 12:19:31;;;;;;;;;;;19.50;99.90;;;;;;5095427;28;19963;-73
2021/09/19 12:22:02;;;;;;;;;;;19.50;99.90;;;;;;5079285;28;20386;-73
2021/09/19 12:24:35;;;;;;;;;;;19.60;99.90;;;;;;5078532;28;19931;-74
2021/09/19 12:27:26;;;;;;;;;;;19.70;99.90;;;;;;5113172;28;19924;-73
2021/09/19 12:30:00;;;;;;;;;;;19.90;99.90;;;;;;5113198;28;19983;-73
2021/09/19 12:32:32;;;;;;;;;;;19.90;99.90;;;;;;5079120;28;19934;-74
2021/09/19 12:35:05;;;;;;;;;;;20.00;99.90;;;;;;5094536;28;20363;-73
2021/09/19 12:37:32;;;;;;;;;;;20.10;99.90;;;;;;5095350;28;20026;-74
2021/09/19 12:40:07;;;;;;;;;;;20.10;99.90;;;;;;5113038;28;20026;-74
2021/09/19 12:42:38;;;;;;;;;;;19.90;99.90;;;;;;5078996;28;19924;-74
2021/09/19 12:45:08;;;;;;;;;;;19.70;99.90;;;;;;5094677;28;20450;-73
2021/09/19 12:47:41;;;;;;;;;;;19.60;99.90;;;;;;5113003;28;20022;-74
2021/09/19 12:50:15;;;;;;;;;;;19.50;99.90;;;;;;5112869;28;20367;-73
2021/09/19 12:52:46;;;;;;;;;;;19.30;99.90;;;;;;5094879;28;20010;-74
2021/09/19 12:55:19;;;;;;;;;;;19.30;99.90;;;;;;5112571;28;19923;-74
2021/09/19 12:57:50;;;;;;;;;;;19.20;99.90;;;;;;5095512;28;19924;-72
2021/09/19 13:00:18;;;;;;;;;;;19.10;99.90;;;;;;5078002;28;20374;-73
2021/09/19 13:02:57;;;;;;;;;;;19.10;99.90;;;;;;5094863;28;20019;-74
2021/09/19 13:05:29;;;;;;;;;;;19.10;99.90;;;;;;5112609;28;19934;-74
2021/09/19 13:08:01;;;;;;;;;;;19.10;99.90;;;;;;5094629;28;19982;-73
2021/09/19 13:10:33;;;;;;;;;;;19.10;99.90;;;;;;5094319;28;20001;-73
2021/09/19 13:13:05;;;;;;;;;;;19.20;99.90;;;;;;5095470;28;19924;-73
2021/09/19 13:15:32;;;;;;;;;;;19.40;99.90;;;;;;5077415;28;19930;-73
2021/09/19 13:17:59;;;;;;;;;;;19.60;99.90;;;;;;5077850;28;19924;-74
2021/09/19 13:20:31;;;;;;;;;;;19.70;99.90;;;;;;5112736;28;19923;-73
2021/09/19 13:23:03;;;;;;;;;;;19.70;99.90;;;;;;5095377;28;20026;-73
2021/09/19 13:25:34;;;;;;;;;;;19.80;99.90;;;;;;5112409;28;19930;-74
2021/09/19 13:28:09;;;;;;;;;;;19.70;99.90;;;;;;5078221;28;19951;-73
2021/09/19 13:30:41;;;;;;;;;;;19.70;99.90;;;;;;5112553;28;20492;-73
2021/09/19 13:33:07;;;;;;;;;;;19.50;99.90;;;;;;5112638;28;20014;-74
2021/09/19 13:35:39;;;;;;;;;;;19.30;99.90;;;;;;5094720;28;19923;-74
2021/09/19 13:38:10;;;;;;;;;;;19.20;99.90;;;;;;5112531;28;19924;-74
2021/09/19 13:40:37;;;;;;;;;;;19.10;99.90;;;;;;5098396;28;20015;-74
2021/09/19 13:43:09;;;;;;;;;;;19.10;99.90;;;;;;5099223;28;19959;-75
2021/09/19 13:45:37;;;;;;;;;;;19.20;99.90;;;;;;5116318;28;20010;-73
2021/09/19 13:48:08;;;;;;;;;;;19.40;99.90;;;;;;5099246;28;20034;-74
2021/09/19 13:50:40;;;;;;;;;;;19.50;99.90;;;;;;5082007;28;20355;-73
2021/09/19 13:53:12;;;;;;;;;;;19.50;99.90;;;;;;5097917;28;19963;-74
2021/09/19 13:55:46;;;;;;;;;;;19.60;99.90;;;;;;5097760;28;19967;-73
2021/09/19 13:58:18;;;;;;;;;;;19.60;99.90;;;;;;5097965;28;19928;-73
2021/09/19 14:00:50;;;;;;;;;;;19.50;99.90;;;;;;5116094;28;20374;-73
2021/09/19 14:03:22;;;;;;;;;;;19.50;99.90;;;;;;5099146;28;20001;-73
2021/09/19 14:05:54;;;;;;;;;;;19.60;99.90;;;;;;5097671;28;19924;-73
2021/09/19 14:08:25;;;;;;;;;;;19.80;99.90;;;;;;5116085;28;19924;-74
2021/09/19 14:10:57;;;;;;;;;;;19.90;99.90;;;;;;5098703;28;20014;-74
2021/09/19 14:13:29;;;;;;;;;;;20.00;99.90;;;;;;5081693;28;19946;-75
2021/09/19 14:15:55;;;;;;;;;;;20.10;99.90;;;;;;5115572;28;20346;-73
2021/09/19 14:18:22;;;;;;;;;;;20.10;99.90;;;;;;5115900;28;20022;-73
2021/09/19 14:20:49;;;;;;;;;;;20.20;99.90;;;;;;5097618;28;19934;-73
2021/09/19 14:23:20;;;;;;;;;;;20.20;99.90;;;;;;5098371;28;19924;-73
2021/09/19 14:25:52;;;;;;;;;;;20.10;99.90;;;;;;5115671;28;20301;-73
2021/09/19 14:28:24;;;;;;;;;;;20.10;99.90;;;;;;5097491;28;20309;-72
2021/09/19 14:30:55;;;;;;;;;;;20.10;99.90;;;;;;5097568;28;19923;-73
2021/09/19 14:33:27;;;;;;;;;;;20.00;99.90;;;;;;5081125;28;19930;-72
2021/09/19 14:35:59;;;;;;;;;;;19.90;99.90;;;;;;5080522;28;19928;-73
2021/09/19 14:38:26;;;;;;;;;;;19.80;99.90;;;;;;5115629;28;19924;-73
2021/09/19 14:40:52;;;;;;;;;;;19.70;99.90;;;;;;5080305;28;20358;-73
2021/09/19 14:43:19;;;;;;;;;;;19.60;99.90;;;;;;5097232;28;19958;-73